createdAt,value
2019-03-29T00:00:24.284Z,99.90
2019-03-29T00:01:29.986Z,99.90
2019-03-29T00:02:35.610Z,99.90
2019-03-29T00:03:41.177Z,99.90
2019-03-29T00:04:47.093Z,99.90
2019-03-29T00:05:52.794Z,99.90
2019-03-29T00:15:59.915Z,99.90
2019-03-29T00:17:05.460Z,99.90
2019-03-29T00:18:10.937Z,99.90
2019-03-29T00:19:16.409Z,99.90
2019-03-29T00:20:21.898Z,99.90
2019-03-29T00:21:27.435Z,99.90
2019-03-29T00:22:33.022Z,99.90
2019-03-29T00:23:38.857Z,99.90
2019-03-29T00:24:44.708Z,99.90
2019-03-29T00:25:50.248Z,99.90
2019-03-29T00:26:55.826Z,99.90
2019-03-29T00:28:01.812Z,99.90
2019-03-29T00:29:07.342Z,99.90
2019-03-29T00:30:13.067Z,99.90
2019-03-29T00:31:18.846Z,99.90
2019-03-29T00:32:24.996Z,99.90
2019-03-29T00:33:30.456Z,99.90
2019-03-29T00:34:36.376Z,99.90
2019-03-29T00:35:41.785Z,99.90
2019-03-29T00:36:47.208Z,99.90
2019-03-29T00:37:54.947Z,99.90
2019-03-29T00:39:01.049Z,99.90
2019-03-29T00:40:06.999Z,99.90
2019-03-29T00:41:13.248Z,99.90
2019-03-29T00:42:18.990Z,99.90
2019-03-29T00:43:24.514Z,99.90
2019-03-29T00:44:30.276Z,99.90
2019-03-29T00:45:35.705Z,99.90
2019-03-29T00:46:41.525Z,99.90
2019-03-29T00:47:47.533Z,99.90
2019-03-29T00:48:52.964Z,99.90
2019-03-29T00:49:58.417Z,99.90
2019-03-29T00:51:04.023Z,99.90
2019-03-29T00:52:09.368Z,99.90
2019-03-29T00:53:15.286Z,99.90
2019-03-29T00:54:20.699Z,99.90
2019-03-29T00:55:26.328Z,99.90
2019-03-29T00:56:34.841Z,99.90
2019-03-29T00:57:42.103Z,99.90
2019-03-29T00:58:48.791Z,99.90
2019-03-29T00:59:54.933Z,99.90
2019-03-29T01:01:00.366Z,99.90
2019-03-29T01:02:06.206Z,99.90
2019-03-29T01:03:12.194Z,99.90
2019-03-29T01:04:17.649Z,99.90
2019-03-29T01:05:23.032Z,99.90
2019-03-29T01:06:30.055Z,99.90
2019-03-29T01:07:36.194Z,99.90
2019-03-29T01:08:41.805Z,99.90
2019-03-29T01:09:47.538Z,99.90
2019-03-29T01:10:52.909Z,99.90
2019-03-29T01:11:58.434Z,99.90
2019-03-29T01:13:04.707Z,99.90
2019-03-29T01:14:10.971Z,99.90
2019-03-29T01:15:18.236Z,99.90
2019-03-29T01:16:23.988Z,99.90
2019-03-29T01:17:40.434Z,99.90
2019-03-29T01:18:46.614Z,99.90
2019-03-29T01:19:52.306Z,99.90
2019-03-29T01:20:59.188Z,99.90
2019-03-29T01:22:09.711Z,99.90
2019-03-29T01:23:15.323Z,99.90
2019-03-29T01:24:20.720Z,99.90
2019-03-29T01:25:26.345Z,99.90
2019-03-29T01:26:32.444Z,99.90
2019-03-29T01:27:38.247Z,99.90
2019-03-29T01:28:44.256Z,99.90
2019-03-29T01:29:50.054Z,99.90
2019-03-29T01:30:56.167Z,99.90
2019-03-29T01:32:03.172Z,99.90
2019-03-29T01:33:08.976Z,99.90
2019-03-29T01:34:14.680Z,99.90
2019-03-29T01:35:20.605Z,99.90
2019-03-29T01:36:36.043Z,99.90
2019-03-29T01:37:42.167Z,99.90
2019-03-29T01:38:47.581Z,99.90
2019-03-29T01:39:53.256Z,99.90
2019-03-29T01:40:58.703Z,99.90
2019-03-29T01:42:04.368Z,99.90
2019-03-29T01:43:10.085Z,99.90
2019-03-29T01:44:16.240Z,99.90
2019-03-29T01:45:21.929Z,99.90
2019-03-29T01:46:27.364Z,99.90
2019-03-29T01:47:33.164Z,99.90
2019-03-29T01:48:38.556Z,99.90
2019-03-29T01:49:44.010Z,99.90
2019-03-29T01:50:49.845Z,99.90
2019-03-29T01:51:55.263Z,99.90
2019-03-29T01:53:00.846Z,99.90
2019-03-29T01:54:06.837Z,99.90
2019-03-29T01:55:12.852Z,99.90
2019-03-29T01:56:18.265Z,99.90
2019-03-29T01:57:24.338Z,99.90
2019-03-29T01:58:30.325Z,99.90
2019-03-29T01:59:37.073Z,99.90
2019-03-29T02:00:42.744Z,99.90
2019-03-29T02:01:48.838Z,99.90
2019-03-29T02:02:55.135Z,99.90
2019-03-29T02:04:01.079Z,99.90
2019-03-29T02:05:06.924Z,99.90
2019-03-29T02:06:12.632Z,99.90
2019-03-29T02:07:18.209Z,99.90
2019-03-29T02:08:35.177Z,99.90
2019-03-29T02:09:31.288Z,99.90
2019-03-29T02:10:36.776Z,99.90
2019-03-29T02:11:42.207Z,99.90
2019-03-29T02:12:47.937Z,99.90
2019-03-29T02:13:53.375Z,99.90
2019-03-29T02:14:59.440Z,99.90
2019-03-29T02:16:05.259Z,99.90
2019-03-29T02:17:12.999Z,99.90
2019-03-29T02:18:18.752Z,99.90
2019-03-29T02:19:24.483Z,99.90
2019-03-29T02:20:30.202Z,99.90
2019-03-29T02:21:35.928Z,99.90
2019-03-29T02:22:41.342Z,99.90
2019-03-29T02:23:46.856Z,99.90
2019-03-29T02:24:52.456Z,99.90
2019-03-29T02:25:58.123Z,99.90
2019-03-29T02:27:03.495Z,99.90
2019-03-29T02:28:09.357Z,99.90
2019-03-29T02:29:14.862Z,99.90
2019-03-29T02:30:20.458Z,99.90
2019-03-29T02:31:26.457Z,99.90
2019-03-29T02:32:33.077Z,99.90
2019-03-29T02:33:38.554Z,99.90
2019-03-29T02:34:44.428Z,99.90
2019-03-29T02:35:50.298Z,99.90
2019-03-29T02:36:56.085Z,99.90
2019-03-29T02:38:02.086Z,99.90
2019-03-29T02:39:08.537Z,99.90
2019-03-29T02:40:14.581Z,99.90
2019-03-29T02:41:20.341Z,99.90
2019-03-29T02:42:25.764Z,99.90
2019-03-29T02:43:31.210Z,99.90
2019-03-29T02:44:37.149Z,99.90
2019-03-29T02:45:42.583Z,99.90
2019-03-29T02:46:47.959Z,99.90
2019-03-29T02:47:53.962Z,99.90
2019-03-29T02:48:59.659Z,99.90
2019-03-29T02:50:05.801Z,99.90
2019-03-29T02:51:11.807Z,99.90
2019-03-29T02:52:17.586Z,99.90
2019-03-29T02:53:23.232Z,99.90
2019-03-29T02:54:28.685Z,99.90
2019-03-29T02:55:34.185Z,99.90
2019-03-29T02:56:39.530Z,99.90
2019-03-29T02:57:44.863Z,99.90
2019-03-29T02:58:50.212Z,99.90
2019-03-29T02:59:55.682Z,99.90
2019-03-29T03:01:01.081Z,99.90
2019-03-29T03:02:06.461Z,99.90
2019-03-29T03:03:11.933Z,99.90
2019-03-29T03:04:17.346Z,99.90
2019-03-29T03:05:22.715Z,99.90
2019-03-29T03:06:28.766Z,99.90
2019-03-29T03:07:34.894Z,99.90
2019-03-29T03:08:40.342Z,99.90
2019-03-29T03:09:47.107Z,99.90
2019-03-29T03:10:53.861Z,99.90
2019-03-29T03:12:00.691Z,99.90
2019-03-29T03:13:06.194Z,99.90
2019-03-29T03:14:12.008Z,99.90
2019-03-29T03:15:17.871Z,99.90
2019-03-29T03:16:23.685Z,99.90
2019-03-29T03:17:38.592Z,99.90
2019-03-29T03:18:44.979Z,99.90
2019-03-29T03:19:57.756Z,99.90
2019-03-29T03:21:03.570Z,99.90
2019-03-29T03:22:09.564Z,99.90
2019-03-29T03:24:31.724Z,99.90
2019-03-29T03:24:51.920Z,99.90
2019-03-29T03:25:37.631Z,99.90
2019-03-29T03:28:22.335Z,99.90
2019-03-29T03:29:38.573Z,99.90
2019-03-29T03:30:44.514Z,99.90
2019-03-29T03:31:50.156Z,99.90
2019-03-29T03:32:55.741Z,99.90
2019-03-29T03:34:01.353Z,99.90
2019-03-29T03:35:08.916Z,99.90
2019-03-29T03:36:15.097Z,99.90
2019-03-29T03:37:20.538Z,99.90
2019-03-29T03:38:26.202Z,99.90
2019-03-29T03:39:32.713Z,99.90
2019-03-29T03:40:38.464Z,99.90
2019-03-29T03:42:51.313Z,99.90
2019-03-29T03:44:44.046Z,99.90
2019-03-29T03:45:06.329Z,99.90
2019-03-29T03:46:12.574Z,99.90
2019-03-29T03:47:28.815Z,99.90
2019-03-29T03:48:47.131Z,99.90
2019-03-29T03:49:52.589Z,99.90
2019-03-29T03:50:58.076Z,99.90
2019-03-29T03:52:13.635Z,99.90
2019-03-29T03:53:19.956Z,99.90
2019-03-29T03:54:26.076Z,99.90
2019-03-29T03:55:32.534Z,99.90
2019-03-29T03:56:39.377Z,99.90
2019-03-29T03:57:45.230Z,99.90
2019-03-29T03:58:51.579Z,99.90
2019-03-29T03:59:57.599Z,99.90
2019-03-29T04:01:03.496Z,99.90
2019-03-29T04:02:09.175Z,99.90
2019-03-29T04:03:14.686Z,99.90
2019-03-29T04:04:20.111Z,99.90
2019-03-29T04:05:25.792Z,99.90
2019-03-29T04:06:31.603Z,99.90
2019-03-29T04:07:37.149Z,99.90
2019-03-29T04:08:42.770Z,99.90
2019-03-29T04:09:50.336Z,99.90
2019-03-29T04:10:55.964Z,99.90
2019-03-29T04:12:01.650Z,99.90
2019-03-29T04:13:07.474Z,99.90
2019-03-29T04:14:13.194Z,99.90
2019-03-29T04:15:21.544Z,99.90
2019-03-29T04:16:27.100Z,99.90
2019-03-29T04:17:32.722Z,99.90
2019-03-29T04:18:38.837Z,99.90
2019-03-29T04:19:44.888Z,99.90
2019-03-29T04:20:50.330Z,99.90
2019-03-29T04:21:55.976Z,99.90
2019-03-29T04:23:02.185Z,99.90
2019-03-29T04:24:09.288Z,99.90
2019-03-29T04:25:15.235Z,99.90
2019-03-29T04:26:20.986Z,99.90
2019-03-29T04:27:26.427Z,99.90
2019-03-29T04:28:31.951Z,99.90
2019-03-29T04:29:37.468Z,99.90
2019-03-29T04:30:43.138Z,99.90
2019-03-29T04:31:48.634Z,99.90
2019-03-29T04:32:54.008Z,99.90
2019-03-29T04:33:59.855Z,99.90
2019-03-29T04:35:05.862Z,99.90
2019-03-29T04:36:11.755Z,99.90
2019-03-29T04:37:17.402Z,99.90
2019-03-29T04:38:22.851Z,99.90
2019-03-29T04:39:28.352Z,99.90
2019-03-29T04:41:38.967Z,99.90
2019-03-29T04:42:44.496Z,99.90
2019-03-29T04:43:50.778Z,99.90
2019-03-29T04:44:59.648Z,99.90
2019-03-29T04:46:03.347Z,99.90
2019-03-29T04:47:08.683Z,99.90
2019-03-29T04:48:14.282Z,99.90
2019-03-29T04:49:23.042Z,99.90
2019-03-29T04:50:28.996Z,99.90
2019-03-29T04:51:34.366Z,99.90
2019-03-29T04:52:39.775Z,99.90
2019-03-29T04:53:45.469Z,99.90
2019-03-29T04:54:51.076Z,99.90
2019-03-29T04:55:56.677Z,99.90
2019-03-29T04:57:02.606Z,99.90
2019-03-29T04:58:08.266Z,99.90
2019-03-29T04:59:13.589Z,99.90
2019-03-29T05:00:20.502Z,99.90
2019-03-29T05:01:28.201Z,99.90
2019-03-29T05:02:36.610Z,99.90
2019-03-29T05:03:42.894Z,99.90
2019-03-29T05:04:48.290Z,99.90
2019-03-29T05:05:53.703Z,99.90
2019-03-29T05:06:59.120Z,99.90
2019-03-29T05:08:04.534Z,99.90
2019-03-29T05:09:09.997Z,99.90
2019-03-29T05:10:21.475Z,99.90
2019-03-29T05:11:22.667Z,99.90
2019-03-29T05:12:28.080Z,99.90
2019-03-29T05:13:33.711Z,99.90
2019-03-29T05:14:39.175Z,99.90
2019-03-29T05:15:44.877Z,99.90
2019-03-29T05:16:52.715Z,99.90
2019-03-29T05:17:58.039Z,99.90
2019-03-29T05:19:03.497Z,99.90
2019-03-29T05:20:09.318Z,99.90
2019-03-29T05:21:14.788Z,99.90
2019-03-29T05:22:20.187Z,99.90
2019-03-29T05:23:25.939Z,99.90
2019-03-29T05:24:31.298Z,99.90
2019-03-29T05:25:36.982Z,99.90
2019-03-29T05:26:42.379Z,99.90
2019-03-29T05:27:47.889Z,99.90
2019-03-29T05:28:53.679Z,99.90
2019-03-29T05:30:02.409Z,99.90
2019-03-29T05:31:07.907Z,99.90
2019-03-29T05:32:13.262Z,99.90
2019-03-29T05:33:21.013Z,99.90
2019-03-29T05:34:26.331Z,99.90
2019-03-29T05:35:32.429Z,99.90
2019-03-29T05:36:37.850Z,99.90
2019-03-29T05:37:43.481Z,99.90
2019-03-29T05:38:48.953Z,99.90
2019-03-29T05:39:57.371Z,99.90
2019-03-29T05:41:02.823Z,99.90
2019-03-29T05:42:08.410Z,99.90
2019-03-29T05:43:14.144Z,99.90
2019-03-29T05:44:19.602Z,99.90
2019-03-29T05:45:25.945Z,99.90
2019-03-29T05:46:31.268Z,99.90
2019-03-29T05:47:36.626Z,99.90
2019-03-29T05:48:44.954Z,99.90
2019-03-29T05:49:50.409Z,99.90
2019-03-29T05:50:59.438Z,99.90
2019-03-29T05:52:05.588Z,99.90
2019-03-29T05:53:10.940Z,99.90
2019-03-29T05:54:17.192Z,99.90
2019-03-29T05:55:32.423Z,99.90
2019-03-29T05:56:32.312Z,99.90
2019-03-29T05:57:37.643Z,99.90
2019-03-29T05:58:42.979Z,99.90
2019-03-29T05:59:48.361Z,99.90
2019-03-29T06:00:57.349Z,99.90
2019-03-29T06:02:13.000Z,99.90
2019-03-29T06:03:18.330Z,99.90
2019-03-29T06:04:23.821Z,99.90
2019-03-29T06:05:29.210Z,99.90
2019-03-29T06:06:36.588Z,99.90
2019-03-29T06:07:44.792Z,99.90
2019-03-29T06:08:50.432Z,99.90
2019-03-29T06:09:55.888Z,99.90
2019-03-29T06:11:01.350Z,99.90
2019-03-29T06:12:06.845Z,99.90
2019-03-29T06:13:12.380Z,99.90
2019-03-29T06:14:18.666Z,99.90
2019-03-29T06:15:24.575Z,99.90
2019-03-29T06:16:38.948Z,99.90
2019-03-29T06:17:48.031Z,99.90
2019-03-29T06:18:45.127Z,99.90
2019-03-29T06:19:50.498Z,99.90
2019-03-29T06:20:55.973Z,99.90
2019-03-29T06:22:01.385Z,99.90
2019-03-29T06:23:06.935Z,99.90
2019-03-29T06:24:12.465Z,99.90
2019-03-29T06:25:18.405Z,99.90
2019-03-29T06:26:27.897Z,99.90
2019-03-29T06:27:33.292Z,99.90
2019-03-29T06:28:38.813Z,99.90
2019-03-29T06:29:44.203Z,99.90
2019-03-29T06:30:51.810Z,99.90
2019-03-29T06:31:58.418Z,99.90
2019-03-29T06:33:03.722Z,99.90
2019-03-29T06:34:09.286Z,99.90
2019-03-29T06:35:21.076Z,99.90
2019-03-29T06:36:28.646Z,99.90
2019-03-29T06:37:35.666Z,99.90
2019-03-29T06:38:42.163Z,99.90
2019-03-29T06:39:49.220Z,99.90
2019-03-29T06:41:02.798Z,99.90
2019-03-29T06:42:01.846Z,99.90
2019-03-29T06:43:09.439Z,99.90
2019-03-29T06:44:15.347Z,99.90
2019-03-29T06:45:20.693Z,99.90
2019-03-29T06:46:26.034Z,99.90
2019-03-29T06:47:31.584Z,99.90
2019-03-29T06:48:37.100Z,99.90
2019-03-29T06:49:44.971Z,99.90
2019-03-29T06:50:50.764Z,99.90
2019-03-29T06:52:02.313Z,99.90
2019-03-29T06:53:09.394Z,99.90
2019-03-29T06:54:16.210Z,99.90
2019-03-29T06:55:23.189Z,99.90
2019-03-29T06:56:29.061Z,99.90
2019-03-29T06:57:34.877Z,99.90
2019-03-29T06:58:40.333Z,99.90
2019-03-29T06:59:46.199Z,99.90
2019-03-29T07:00:52.024Z,99.90
2019-03-29T07:01:58.222Z,99.90
2019-03-29T07:03:04.055Z,99.90
2019-03-29T07:04:09.463Z,99.90
2019-03-29T07:05:14.987Z,99.90
2019-03-29T07:06:20.608Z,99.90
2019-03-29T07:07:28.125Z,99.90
2019-03-29T07:08:37.842Z,99.90
2019-03-29T07:09:43.786Z,99.90
2019-03-29T07:10:49.625Z,99.90
2019-03-29T07:11:55.129Z,99.90
2019-03-29T07:13:00.923Z,99.90
2019-03-29T07:14:06.457Z,99.90
2019-03-29T07:15:13.184Z,99.90
2019-03-29T07:16:18.709Z,99.90
2019-03-29T07:17:26.472Z,99.90
2019-03-29T07:18:32.921Z,99.90
2019-03-29T07:19:39.710Z,99.90
2019-03-29T07:20:45.184Z,99.90
2019-03-29T07:21:51.959Z,99.90
2019-03-29T07:22:57.919Z,99.90
2019-03-29T07:24:05.290Z,99.90
2019-03-29T07:25:12.977Z,99.90
2019-03-29T07:26:18.638Z,99.90
2019-03-29T07:27:24.092Z,99.90
2019-03-29T07:28:29.577Z,99.90
2019-03-29T07:29:36.835Z,99.90
2019-03-29T07:30:41.924Z,99.90
2019-03-29T07:31:47.323Z,99.90
2019-03-29T07:32:52.788Z,99.90
2019-03-29T07:33:58.242Z,99.90
2019-03-29T07:35:03.727Z,99.90
2019-03-29T07:36:09.085Z,99.90
2019-03-29T07:37:14.460Z,99.90
2019-03-29T07:38:20.059Z,99.90
2019-03-29T07:39:26.420Z,99.90
2019-03-29T07:40:37.425Z,99.90
2019-03-29T07:41:44.445Z,99.90
2019-03-29T07:42:52.937Z,99.90
2019-03-29T07:44:03.988Z,99.90
2019-03-29T07:45:10.459Z,99.90
2019-03-29T07:46:16.601Z,99.90
2019-03-29T07:47:25.081Z,99.90
2019-03-29T07:49:12.210Z,99.90
2019-03-29T07:50:21.170Z,99.90
2019-03-29T07:51:36.445Z,99.90
2019-03-29T07:52:43.139Z,99.90
2019-03-29T07:53:49.180Z,99.90
2019-03-29T07:54:57.200Z,99.90
2019-03-29T07:56:05.294Z,99.90
2019-03-29T07:57:12.375Z,99.90
2019-03-29T07:58:17.846Z,99.90
2019-03-29T07:59:23.635Z,99.90
2019-03-29T08:00:29.187Z,99.90
2019-03-29T08:01:35.849Z,99.90
2019-03-29T08:02:45.585Z,99.90
2019-03-29T08:03:53.332Z,99.90
2019-03-29T08:04:58.470Z,99.90
2019-03-29T08:06:04.091Z,99.90
2019-03-29T08:07:09.542Z,99.90
2019-03-29T08:08:24.745Z,99.90
2019-03-29T08:09:25.291Z,99.90
2019-03-29T08:10:31.945Z,99.90
2019-03-29T08:11:46.257Z,99.90
2019-03-29T08:12:49.244Z,99.90
2019-03-29T08:13:55.080Z,99.90
2019-03-29T08:15:04.962Z,99.90
2019-03-29T08:16:10.420Z,99.90
2019-03-29T08:17:16.371Z,99.90
2019-03-29T08:18:22.060Z,99.90
2019-03-29T08:19:27.630Z,99.90
2019-03-29T08:20:41.751Z,99.90
2019-03-29T08:21:48.969Z,99.90
2019-03-29T08:23:05.075Z,99.90
2019-03-29T08:24:13.161Z,99.90
2019-03-29T08:25:20.848Z,99.90
2019-03-29T08:26:31.014Z,99.90
2019-03-29T08:27:38.045Z,99.90
2019-03-29T08:28:47.701Z,99.90
2019-03-29T08:29:53.460Z,99.90
2019-03-29T08:30:59.128Z,99.90
2019-03-29T08:32:07.212Z,99.90
2019-03-29T08:33:14.587Z,99.90
2019-03-29T08:34:19.935Z,99.90
2019-03-29T08:35:25.713Z,99.90
2019-03-29T08:36:31.184Z,99.90
2019-03-29T08:37:37.856Z,99.90
2019-03-29T08:38:43.890Z,99.90
2019-03-29T08:39:51.838Z,99.90
2019-03-29T08:41:00.638Z,99.90
2019-03-29T08:42:36.119Z,99.90
2019-03-29T08:43:17.372Z,99.90
2019-03-29T08:44:29.464Z,99.90
2019-03-29T08:45:35.765Z,99.90
2019-03-29T08:46:41.219Z,99.90
2019-03-29T08:47:49.347Z,99.90
2019-03-29T08:48:54.678Z,99.90
2019-03-29T08:50:05.341Z,99.90
2019-03-29T08:51:14.152Z,99.90
2019-03-29T08:52:20.978Z,99.90
2019-03-29T08:53:27.563Z,99.90
2019-03-29T08:54:33.038Z,99.90
2019-03-29T08:55:45.632Z,99.90
2019-03-29T08:56:46.652Z,99.90
2019-03-29T08:57:53.686Z,99.90
2019-03-29T08:59:01.804Z,99.90
2019-03-29T09:00:15.642Z,99.90
2019-03-29T09:01:15.138Z,99.90
2019-03-29T09:02:20.599Z,99.90
2019-03-29T09:03:26.787Z,99.90
2019-03-29T09:04:33.709Z,99.90
2019-03-29T09:05:41.673Z,99.90
2019-03-29T09:06:53.253Z,99.90
2019-03-29T09:07:55.384Z,99.90
2019-03-29T09:09:01.053Z,99.90
2019-03-29T09:10:14.017Z,99.90
2019-03-29T09:11:19.610Z,99.90
2019-03-29T09:12:25.674Z,99.90
2019-03-29T09:13:32.181Z,99.90
2019-03-29T09:14:37.848Z,99.90
2019-03-29T09:15:49.913Z,99.90
2019-03-29T09:16:55.718Z,99.90
2019-03-29T09:18:01.387Z,99.90
2019-03-29T09:19:07.067Z,99.90
2019-03-29T09:20:12.605Z,99.90
2019-03-29T09:21:20.187Z,99.90
2019-03-29T09:22:38.495Z,99.90
2019-03-29T09:23:53.619Z,99.90
2019-03-29T09:26:37.417Z,99.90
2019-03-29T09:27:46.034Z,99.90
2019-03-29T09:28:51.400Z,99.90
2019-03-29T09:29:57.819Z,99.90
2019-03-29T09:31:08.184Z,99.90
2019-03-29T09:32:16.391Z,99.90
2019-03-29T09:33:28.595Z,99.90
2019-03-29T09:34:34.085Z,99.90
2019-03-29T09:35:42.816Z,99.90
2019-03-29T09:36:49.942Z,99.90
2019-03-29T09:38:01.486Z,99.90
2019-03-29T09:39:16.115Z,99.90
2019-03-29T09:40:29.401Z,99.90
2019-03-29T09:41:35.334Z,99.90
2019-03-29T09:43:09.014Z,99.90
2019-03-29T09:44:21.811Z,99.90
2019-03-29T09:45:48.236Z,99.90
2019-03-29T09:46:55.898Z,99.90
2019-03-29T09:48:05.580Z,99.90
2019-03-29T09:49:11.734Z,99.90
2019-03-29T09:50:17.777Z,99.90
2019-03-29T09:51:25.621Z,99.90
2019-03-29T09:52:31.062Z,99.90
2019-03-29T09:53:36.506Z,99.90
2019-03-29T09:54:49.411Z,99.90
2019-03-29T09:55:59.089Z,99.90
2019-03-29T09:57:09.987Z,99.90
2019-03-29T09:58:26.230Z,99.90
2019-03-29T09:59:31.571Z,99.90
2019-03-29T10:00:38.330Z,99.90
2019-03-29T10:01:43.701Z,99.90
2019-03-29T10:02:49.670Z,99.90
2019-03-29T10:03:56.469Z,99.90
2019-03-29T10:05:05.118Z,99.90
2019-03-29T10:06:10.800Z,99.90
2019-03-29T10:07:24.374Z,99.90
2019-03-29T10:08:33.052Z,99.90
2019-03-29T10:09:38.397Z,99.90
2019-03-29T10:10:47.562Z,99.90
2019-03-29T10:11:53.264Z,99.90
2019-03-29T10:13:03.289Z,99.90
2019-03-29T10:14:12.210Z,99.90
2019-03-29T10:15:24.295Z,99.90
2019-03-29T10:16:35.289Z,99.90
2019-03-29T10:17:40.946Z,99.90
2019-03-29T10:18:46.949Z,99.90
2019-03-29T10:19:54.998Z,99.90
2019-03-29T10:21:00.415Z,99.90
2019-03-29T10:22:12.668Z,99.90
2019-03-29T10:23:19.853Z,99.90
2019-03-29T10:24:29.947Z,99.90
2019-03-29T10:25:35.655Z,99.90
2019-03-29T10:26:41.370Z,99.90
2019-03-29T10:27:47.605Z,99.90
2019-03-29T10:28:57.289Z,99.90
2019-03-29T10:30:03.213Z,99.90
2019-03-29T10:31:09.316Z,99.90
2019-03-29T10:32:22.206Z,99.90
2019-03-29T10:33:29.080Z,99.90
2019-03-29T10:34:37.757Z,99.90
2019-03-29T10:35:52.300Z,99.90
2019-03-29T10:39:13.389Z,99.90
2019-03-29T10:40:21.519Z,99.90
2019-03-29T10:41:29.109Z,99.90
2019-03-29T10:42:40.083Z,99.90
2019-03-29T10:43:47.946Z,99.90
2019-03-29T10:44:54.746Z,99.90
2019-03-29T10:46:04.341Z,99.90
2019-03-29T10:47:22.546Z,99.90
2019-03-29T10:48:41.671Z,99.90
2019-03-29T10:49:54.751Z,99.90
2019-03-29T10:51:01.849Z,99.90
2019-03-29T10:52:13.040Z,99.90
2019-03-29T10:53:19.645Z,99.90
2019-03-29T10:54:35.789Z,99.90
2019-03-29T10:55:41.520Z,99.90
2019-03-29T10:56:49.281Z,99.90
2019-03-29T10:57:59.881Z,99.90
2019-03-29T10:59:11.386Z,99.90
2019-03-29T11:00:37.777Z,99.90
2019-03-29T11:01:43.659Z,99.90
2019-03-29T11:02:49.297Z,99.90
2019-03-29T11:03:56.554Z,99.90
2019-03-29T11:05:04.412Z,99.90
2019-03-29T11:06:11.531Z,99.90
2019-03-29T11:07:18.858Z,99.90
2019-03-29T11:08:30.191Z,99.90
2019-03-29T11:09:44.595Z,99.90
2019-03-29T11:10:49.984Z,99.90
2019-03-29T11:11:58.479Z,99.90
2019-03-29T11:13:13.024Z,99.90
2019-03-29T11:14:14.113Z,99.90
2019-03-29T11:15:19.609Z,99.90
2019-03-29T11:16:30.131Z,99.90
2019-03-29T11:17:39.087Z,99.90
2019-03-29T11:18:45.869Z,99.90
2019-03-29T11:20:18.780Z,99.90
2019-03-29T11:21:26.735Z,99.90
2019-03-29T11:22:36.233Z,99.90
2019-03-29T11:23:41.559Z,99.90
2019-03-29T11:24:52.111Z,99.90
2019-03-29T11:26:01.853Z,99.90
2019-03-29T11:27:13.609Z,99.90
2019-03-29T11:28:19.833Z,99.90
2019-03-29T11:29:25.452Z,99.90
2019-03-29T11:31:02.116Z,99.90
2019-03-29T11:32:27.093Z,99.90
2019-03-29T11:34:24.302Z,99.90
2019-03-29T11:35:39.263Z,99.90
2019-03-29T11:36:53.897Z,99.90
2019-03-29T11:38:02.207Z,99.90
2019-03-29T11:39:10.413Z,99.90
2019-03-29T11:40:16.086Z,99.90
2019-03-29T11:42:13.793Z,99.90
2019-03-29T11:44:32.751Z,99.90
2019-03-29T11:45:39.289Z,99.90
2019-03-29T11:46:44.812Z,99.90
2019-03-29T11:48:07.404Z,99.90
2019-03-29T11:49:04.197Z,99.90
2019-03-29T11:50:09.841Z,99.90
2019-03-29T11:51:19.791Z,99.90
2019-03-29T11:52:27.629Z,99.90
2019-03-29T11:53:34.837Z,99.90
2019-03-29T11:54:40.450Z,99.90
2019-03-29T11:55:46.455Z,99.90
2019-03-29T11:56:54.204Z,99.90
2019-03-29T11:58:03.342Z,97.10
2019-03-29T11:59:10.722Z,94.10
2019-03-29T12:00:18.052Z,91.50
2019-03-29T12:01:24.766Z,89.10
2019-03-29T12:02:34.333Z,84.30
2019-03-29T12:03:42.113Z,78.90
2019-03-29T12:04:48.086Z,75.40
2019-03-29T12:06:40.399Z,72.60
2019-03-29T12:07:50.413Z,68.20
2019-03-29T12:09:00.948Z,64.10
2019-03-29T12:10:13.040Z,60.50
2019-03-29T12:11:19.099Z,59.40
2019-03-29T12:12:27.519Z,56.50
2019-03-29T12:13:40.967Z,55.50
2019-03-29T12:14:39.712Z,54.20
2019-03-29T12:15:46.809Z,52.50
2019-03-29T12:16:52.708Z,52.20
2019-03-29T12:17:59.051Z,51.90
2019-03-29T12:19:04.900Z,51.60
2019-03-29T12:20:13.761Z,50.60
2019-03-29T12:21:24.613Z,50.40
2019-03-29T12:22:31.312Z,48.70
2019-03-29T12:23:36.686Z,48.50
2019-03-29T12:24:44.461Z,47.70
2019-03-29T12:25:49.914Z,47.80
2019-03-29T12:26:55.355Z,48.70
2019-03-29T12:28:04.054Z,49.70
2019-03-29T12:29:13.525Z,50.10
2019-03-29T12:30:31.762Z,50.70
2019-03-29T12:31:33.265Z,50.90
2019-03-29T12:32:39.191Z,51.10
2019-03-29T12:33:44.622Z,49.90
2019-03-29T12:34:50.017Z,49.60
2019-03-29T12:35:55.500Z,49.50
2019-03-29T12:37:02.200Z,47.40
2019-03-29T12:38:13.563Z,46.40
2019-03-29T12:39:19.105Z,46.30
2019-03-29T12:40:38.934Z,45.60
2019-03-29T12:41:50.027Z,46.00
2019-03-29T12:42:58.103Z,46.20
2019-03-29T12:44:04.092Z,45.90
2019-03-29T12:45:11.871Z,46.40
2019-03-29T12:46:27.342Z,47.70
2019-03-29T12:47:32.944Z,48.00
2019-03-29T12:48:38.831Z,49.30
2019-03-29T12:49:49.254Z,48.70
2019-03-29T12:50:57.068Z,47.50
2019-03-29T12:52:02.499Z,47.60
2019-03-29T12:53:08.130Z,46.10
2019-03-29T12:54:15.846Z,44.70
2019-03-29T12:55:21.472Z,45.30
2019-03-29T12:56:29.793Z,45.10
2019-03-29T12:57:39.190Z,44.40
2019-03-29T12:58:44.845Z,43.50
2019-03-29T12:59:50.701Z,42.20
2019-03-29T13:00:56.966Z,41.60
2019-03-29T13:02:02.362Z,41.60
2019-03-29T13:03:08.174Z,43.10
2019-03-29T13:04:13.622Z,42.80
2019-03-29T13:05:20.654Z,44.60
2019-03-29T13:06:26.227Z,45.40
2019-03-29T13:07:32.115Z,45.30
2019-03-29T13:08:39.589Z,44.60
2019-03-29T13:09:45.004Z,43.90
2019-03-29T13:10:51.194Z,43.10
2019-03-29T13:12:01.326Z,43.70
2019-03-29T13:13:07.196Z,44.80
2019-03-29T13:14:16.469Z,45.60
2019-03-29T13:15:21.912Z,46.70
2019-03-29T13:16:31.758Z,47.20
2019-03-29T13:17:38.718Z,47.60
2019-03-29T13:18:44.040Z,49.10
2019-03-29T13:19:53.264Z,49.10
2019-03-29T13:21:01.731Z,49.50
2019-03-29T13:22:09.870Z,50.40
2019-03-29T13:23:15.306Z,50.80
2019-03-29T13:24:22.982Z,52.40
2019-03-29T13:25:35.171Z,52.10
2019-03-29T13:26:43.209Z,52.90
2019-03-29T13:27:56.334Z,53.80
2019-03-29T13:29:07.626Z,54.60
2019-03-29T13:30:17.335Z,55.30
2019-03-29T13:31:26.967Z,55.60
2019-03-29T13:32:58.340Z,56.30
2019-03-29T13:34:05.835Z,57.30
2019-03-29T13:35:12.730Z,57.00
2019-03-29T13:36:19.772Z,57.10
2019-03-29T13:37:28.015Z,58.50
2019-03-29T13:38:37.043Z,58.20
2019-03-29T13:39:46.637Z,59.00
2019-03-29T13:40:58.015Z,60.70
2019-03-29T13:42:06.518Z,61.40
2019-03-29T13:43:15.274Z,61.50
2019-03-29T13:44:28.388Z,62.40
2019-03-29T13:45:37.481Z,62.80
2019-03-29T13:46:45.483Z,62.70
2019-03-29T13:47:57.181Z,63.10
2019-03-29T13:49:02.603Z,63.20
2019-03-29T13:50:13.826Z,63.10
2019-03-29T13:51:21.889Z,63.30
2019-03-29T13:52:31.280Z,64.20
2019-03-29T13:53:42.196Z,63.40
2019-03-29T13:54:49.697Z,65.50
2019-03-29T13:55:59.548Z,66.10
2019-03-29T13:57:06.295Z,65.60
2019-03-29T13:58:11.611Z,66.30
2019-03-29T13:59:19.270Z,68.10
2019-03-29T14:00:30.706Z,69.00
2019-03-29T14:01:36.312Z,68.70
2019-03-29T14:02:48.629Z,69.70
2019-03-29T14:03:54.020Z,70.80
2019-03-29T14:05:02.463Z,69.70
2019-03-29T14:06:27.470Z,69.30
2019-03-29T14:07:34.024Z,70.50
2019-03-29T14:08:40.013Z,71.80
2019-03-29T14:10:00.517Z,71.90
2019-03-29T14:11:08.867Z,71.60
2019-03-29T14:12:24.200Z,72.70
2019-03-29T14:13:31.183Z,73.20
2019-03-29T14:16:04.375Z,74.50
2019-03-29T14:17:18.846Z,75.50
2019-03-29T14:18:24.623Z,76.20
2019-03-29T14:20:39.069Z,78.20
2019-03-29T14:21:44.532Z,77.40
2019-03-29T14:22:55.670Z,77.10
2019-03-29T14:23:57.678Z,77.30
2019-03-29T14:25:03.426Z,79.50
2019-03-29T14:26:09.018Z,80.60
2019-03-29T14:27:24.367Z,80.90
2019-03-29T14:28:32.982Z,82.80
2019-03-29T14:29:38.713Z,82.10
2019-03-29T14:30:44.586Z,82.90
2019-03-29T14:31:49.948Z,83.40
2019-03-29T14:32:55.416Z,83.40
2019-03-29T14:34:01.616Z,84.50
2019-03-29T14:35:07.858Z,85.30
2019-03-29T14:36:13.442Z,85.80
2019-03-29T14:37:20.020Z,87.10
2019-03-29T14:38:27.290Z,86.30
2019-03-29T14:39:32.610Z,86.90
2019-03-29T14:40:38.881Z,86.30
2019-03-29T14:41:44.477Z,84.70
2019-03-29T14:42:52.847Z,86.30
2019-03-29T14:44:02.111Z,87.10
2019-03-29T14:45:09.034Z,87.40
2019-03-29T14:46:14.536Z,88.30
2019-03-29T14:47:20.392Z,87.70
2019-03-29T14:48:28.442Z,87.50
2019-03-29T14:49:37.859Z,88.60
2019-03-29T14:50:44.312Z,89.40